createdAt,value
2018-11-06T00:01:11.850Z,23.50
2018-11-06T00:03:20.899Z,23.90
2018-11-06T00:05:24.013Z,24.30
2018-11-06T00:07:27.158Z,25.10
2018-11-06T00:09:30.682Z,22.80
2018-11-06T00:11:34.791Z,23.90
2018-11-06T00:13:38.299Z,23.83
2018-11-06T00:15:41.435Z,23.87
2018-11-06T00:17:44.546Z,23.90
2018-11-06T00:19:47.652Z,24.43
2018-11-06T00:21:50.773Z,22.80
2018-11-06T00:23:53.893Z,23.30
2018-11-06T00:25:56.956Z,23.73
2018-11-06T00:28:00.036Z,25.80
2018-11-06T00:30:06.317Z,25.70
2018-11-06T00:32:09.488Z,25.20
2018-11-06T00:34:12.709Z,23.33
2018-11-06T00:36:15.839Z,25.50
2018-11-06T00:38:18.913Z,24.90
2018-11-06T00:40:22.023Z,25.20
2018-11-06T00:42:25.172Z,24.70
2018-11-06T00:44:28.313Z,22.97
2018-11-06T00:46:31.417Z,22.40
2018-11-06T00:48:35.667Z,23.50
2018-11-06T00:50:38.754Z,24.67
2018-11-06T00:52:42.908Z,24.67
2018-11-06T00:54:46.015Z,24.40
2018-11-06T00:56:49.134Z,24.73
2018-11-06T00:58:52.328Z,25.40
2018-11-06T01:00:55.429Z,24.17
2018-11-06T01:02:58.631Z,26.37
2018-11-06T01:05:03.119Z,24.80
2018-11-06T01:07:06.231Z,26.47
2018-11-06T01:09:13.862Z,25.87
2018-11-06T01:11:16.994Z,26.30
2018-11-06T01:13:20.072Z,26.03
2018-11-06T01:15:23.197Z,25.07
2018-11-06T01:17:26.386Z,25.60
2018-11-06T01:19:29.529Z,23.80
2018-11-06T01:21:33.795Z,25.37
2018-11-06T01:23:37.180Z,24.90
2018-11-06T01:25:40.295Z,25.97
2018-11-06T01:27:43.488Z,25.37
2018-11-06T01:29:46.615Z,25.40
2018-11-06T01:31:49.789Z,25.53
2018-11-06T01:33:52.888Z,25.30
2018-11-06T01:35:56.090Z,25.87
2018-11-06T01:37:59.247Z,23.67
2018-11-06T01:40:04.152Z,25.07
2018-11-06T01:42:07.283Z,25.20
2018-11-06T01:44:10.535Z,22.67
2018-11-06T01:46:13.646Z,25.00
2018-11-06T01:48:16.783Z,24.20
2018-11-06T01:50:19.899Z,24.37
2018-11-06T01:52:22.985Z,23.40
2018-11-06T01:54:26.088Z,24.10
2018-11-06T01:56:29.202Z,23.17
2018-11-06T01:58:33.812Z,23.93
2018-11-06T02:00:36.937Z,24.33
2018-11-06T02:02:40.191Z,24.00
2018-11-06T02:04:43.327Z,24.80
2018-11-06T02:06:46.446Z,24.07
2018-11-06T02:08:49.552Z,24.40
2018-11-06T02:10:52.668Z,25.40
2018-11-06T02:12:56.032Z,24.23
2018-11-06T02:14:59.141Z,25.50
2018-11-06T02:17:03.820Z,23.93
2018-11-06T02:19:06.974Z,24.60
2018-11-06T02:21:10.146Z,23.50
2018-11-06T02:23:13.274Z,26.87
2018-11-06T02:25:16.465Z,25.60
2018-11-06T02:27:20.556Z,25.07
2018-11-06T02:29:23.752Z,25.97
2018-11-06T02:31:26.900Z,24.40
2018-11-06T02:33:30.094Z,25.10
2018-11-06T02:35:35.677Z,24.53
2018-11-06T02:37:38.805Z,25.50
2018-11-06T02:39:41.917Z,25.47
2018-11-06T02:41:45.059Z,26.23
2018-11-06T02:43:48.198Z,27.03
2018-11-06T02:45:51.339Z,25.47
2018-11-06T02:47:54.421Z,25.90
2018-11-06T02:49:57.648Z,26.00
2018-11-06T02:52:00.913Z,27.00
2018-11-06T02:54:05.846Z,26.63
2018-11-06T02:56:08.954Z,26.30
2018-11-06T02:58:12.098Z,26.33
2018-11-06T03:00:17.199Z,24.57
2018-11-06T03:02:20.311Z,24.87
2018-11-06T03:04:23.398Z,26.40
2018-11-06T03:06:26.523Z,26.20
2018-11-06T03:08:29.673Z,24.23
2018-11-06T03:10:34.487Z,26.10
2018-11-06T03:12:37.830Z,25.73
2018-11-06T03:14:40.929Z,26.47
2018-11-06T03:16:44.070Z,27.70
2018-11-06T03:18:47.200Z,27.37
2018-11-06T03:20:50.335Z,26.23
2018-11-06T03:22:53.527Z,26.50
2018-11-06T03:24:56.602Z,26.73
2018-11-06T03:26:59.845Z,27.50
2018-11-06T03:29:04.485Z,25.77
2018-11-06T03:31:07.597Z,25.70
2018-11-06T03:33:10.753Z,27.53
2018-11-06T03:35:14.672Z,27.27
2018-11-06T03:37:17.716Z,28.10
2018-11-06T03:39:20.833Z,26.10
2018-11-06T03:41:23.869Z,27.67
2018-11-06T03:43:26.978Z,28.40
2018-11-06T03:45:30.105Z,27.20
2018-11-06T03:47:35.255Z,29.50
2018-11-06T03:49:38.335Z,26.63
2018-11-06T03:51:41.427Z,28.03
2018-11-06T03:53:44.499Z,28.20
2018-11-06T03:55:47.607Z,28.03
2018-11-06T03:57:50.657Z,27.67
2018-11-06T03:59:53.740Z,29.00
2018-11-06T04:01:57.057Z,28.60
2018-11-06T04:04:00.184Z,27.37
2018-11-06T04:06:04.654Z,29.90
2018-11-06T04:08:07.751Z,28.53
2018-11-06T04:10:11.636Z,29.90
2018-11-06T04:12:14.705Z,29.27
2018-11-06T04:14:17.859Z,28.27
2018-11-06T04:16:20.946Z,27.30
2018-11-06T04:18:24.048Z,28.57
2018-11-06T04:20:27.160Z,27.20
2018-11-06T04:22:30.390Z,26.43
2018-11-06T04:24:35.358Z,28.33
2018-11-06T04:26:38.877Z,29.37
2018-11-06T04:28:41.993Z,28.90
2018-11-06T04:30:45.374Z,30.47
2018-11-06T04:32:48.441Z,28.67
2018-11-06T04:34:51.486Z,28.97
2018-11-06T04:36:54.903Z,29.77
2018-11-06T04:38:58.508Z,29.20
2018-11-06T04:41:01.554Z,29.47
2018-11-06T04:43:05.424Z,27.13
2018-11-06T04:45:09.784Z,27.23
2018-11-06T04:47:12.911Z,28.47
2018-11-06T04:49:15.982Z,28.83
2018-11-06T04:51:19.408Z,27.13
2018-11-06T04:53:22.546Z,26.20
2018-11-06T04:55:25.680Z,26.10
2018-11-06T04:57:28.764Z,29.43
2018-11-06T04:59:33.525Z,30.40
2018-11-06T05:01:36.644Z,27.90
2018-11-06T05:03:45.707Z,28.77
2018-11-06T05:05:48.813Z,31.53
2018-11-06T05:07:51.927Z,28.40
2018-11-06T05:09:55.048Z,29.60
2018-11-06T05:11:58.108Z,29.60
2018-11-06T05:14:01.160Z,27.67
2018-11-06T05:16:05.573Z,29.83
2018-11-06T05:18:08.617Z,28.00
2018-11-06T05:20:14.994Z,30.53
2018-11-06T05:22:18.072Z,29.23
2018-11-06T05:24:21.178Z,27.80
2018-11-06T05:26:24.245Z,29.93
2018-11-06T05:28:27.661Z,29.57
2018-11-06T05:30:30.742Z,30.53
2018-11-06T05:32:35.266Z,30.63
2018-11-06T05:34:38.712Z,30.40
2018-11-06T05:36:41.838Z,29.57
2018-11-06T05:38:45.004Z,31.57
2018-11-06T05:40:59.664Z,32.17
2018-11-06T05:43:04.450Z,28.77
2018-11-06T05:45:07.593Z,29.43
2018-11-06T05:47:10.725Z,31.10
2018-11-06T05:49:13.853Z,32.17
2018-11-06T05:51:16.952Z,31.03
2018-11-06T05:53:20.144Z,33.00
2018-11-06T05:55:23.240Z,30.13
2018-11-06T05:57:26.496Z,33.10
2018-11-06T05:59:29.580Z,33.43
2018-11-06T06:01:34.317Z,35.07
2018-11-06T06:03:37.421Z,33.73
2018-11-06T06:05:40.925Z,35.83
2018-11-06T06:07:44.080Z,32.20
2018-11-06T06:09:47.125Z,36.53
2018-11-06T06:11:50.360Z,35.67
2018-11-06T06:13:53.428Z,32.80
2018-11-06T06:15:56.488Z,37.27
2018-11-06T06:17:59.972Z,33.00
2018-11-06T06:20:03.523Z,34.17
2018-11-06T06:22:06.680Z,34.90
2018-11-06T06:24:09.938Z,32.77
2018-11-06T06:26:13.087Z,32.60
2018-11-06T06:28:16.225Z,32.13
2018-11-06T06:30:19.296Z,31.60
2018-11-06T06:32:22.505Z,30.17
2018-11-06T06:34:25.577Z,32.80
2018-11-06T06:36:28.679Z,31.43
2018-11-06T06:38:33.455Z,29.53
2018-11-06T06:40:36.649Z,32.37
2018-11-06T06:42:42.009Z,32.70
2018-11-06T06:44:45.233Z,30.77
2018-11-06T06:46:48.265Z,33.20
2018-11-06T06:48:51.421Z,32.10
2018-11-06T06:50:54.546Z,32.60
2018-11-06T06:52:57.727Z,34.10
2018-11-06T06:55:00.774Z,34.47
2018-11-06T06:57:05.108Z,33.23
2018-11-06T06:59:08.209Z,33.53
2018-11-06T07:01:12.437Z,35.60
2018-11-06T07:03:15.537Z,33.67
2018-11-06T07:05:20.749Z,33.97
2018-11-06T07:07:23.794Z,33.47
2018-11-06T07:09:26.911Z,34.77
2018-11-06T07:11:29.956Z,32.43
2018-11-06T07:13:33.538Z,34.07
2018-11-06T07:15:37.563Z,33.17
2018-11-06T07:17:41.109Z,31.73
2018-11-06T07:19:44.201Z,32.97
2018-11-06T07:21:47.278Z,31.13
2018-11-06T07:23:51.177Z,33.67
2018-11-06T07:25:55.315Z,29.30
2018-11-06T07:27:59.017Z,34.00
2018-11-06T07:30:04.140Z,32.80
2018-11-06T07:32:07.250Z,32.80
2018-11-06T07:34:10.282Z,32.27
2018-11-06T07:36:13.372Z,30.80
2018-11-06T07:38:16.718Z,31.97
2018-11-06T07:40:20.285Z,30.07
2018-11-06T07:42:23.825Z,30.87
2018-11-06T07:44:27.324Z,31.83
2018-11-06T07:46:30.381Z,29.33
2018-11-06T07:48:35.005Z,29.17
2018-11-06T07:50:38.844Z,29.43
2018-11-06T07:52:42.325Z,29.03
2018-11-06T07:54:45.389Z,30.40
2018-11-06T07:56:48.389Z,28.83
2018-11-06T07:58:51.736Z,27.63
2018-11-06T08:00:54.810Z,29.40
2018-11-06T08:02:57.886Z,30.00
2018-11-06T08:05:00.967Z,28.47
2018-11-06T08:07:05.854Z,28.37
2018-11-06T08:09:09.780Z,28.20
2018-11-06T08:11:12.916Z,27.20
2018-11-06T08:13:16.432Z,28.23
2018-11-06T08:15:19.512Z,27.37
2018-11-06T08:17:22.829Z,27.20
2018-11-06T08:19:25.837Z,27.00
2018-11-06T08:21:28.849Z,25.00
2018-11-06T08:23:33.745Z,27.70
2018-11-06T08:25:36.808Z,28.00
2018-11-06T08:27:40.719Z,27.10
2018-11-06T08:29:44.661Z,28.50
2018-11-06T08:31:48.741Z,26.90
2018-11-06T08:33:51.278Z,28.67
2018-11-06T08:35:54.826Z,26.63
2018-11-06T08:37:57.895Z,26.03
2018-11-06T08:40:01.425Z,27.00
2018-11-06T08:42:06.250Z,28.73
2018-11-06T08:44:09.861Z,26.03
2018-11-06T08:46:12.967Z,25.03
2018-11-06T08:48:16.483Z,25.00
2018-11-06T08:50:19.924Z,25.50
2018-11-06T08:52:23.532Z,25.63
2018-11-06T08:54:27.057Z,25.57
2018-11-06T08:56:30.080Z,25.27
2018-11-06T08:58:34.752Z,25.80
2018-11-06T09:00:38.272Z,25.20
2018-11-06T09:02:42.092Z,25.07
2018-11-06T09:04:45.366Z,24.30
2018-11-06T09:06:48.408Z,24.00
2018-11-06T09:08:52.076Z,25.00
2018-11-06T09:10:55.179Z,25.20
2018-11-06T09:12:58.452Z,25.50
2018-11-06T09:15:01.551Z,29.57
2018-11-06T09:17:05.384Z,24.20
2018-11-06T09:19:08.385Z,22.63
2018-11-06T09:21:11.518Z,27.00
2018-11-06T09:23:15.049Z,29.47
2018-11-06T09:25:18.845Z,25.13
2018-11-06T09:27:21.883Z,26.23
2018-11-06T09:29:25.014Z,40.50
2018-11-06T09:31:28.775Z,29.83
2018-11-06T09:33:33.813Z,23.47
2018-11-06T09:35:37.537Z,22.77
2018-11-06T09:37:41.496Z,22.93
2018-11-06T09:39:44.555Z,23.00
2018-11-06T09:41:47.582Z,23.73
2018-11-06T09:43:50.720Z,24.47
2018-11-06T09:45:53.844Z,24.37
2018-11-06T09:47:56.895Z,22.53
2018-11-06T09:50:00.404Z,23.90
2018-11-06T09:52:04.846Z,23.90
2018-11-06T09:54:07.892Z,23.40
2018-11-06T09:56:11.031Z,22.67
2018-11-06T10:02:47.151Z,23.23
2018-11-06T10:04:50.187Z,20.83
2018-11-06T10:06:53.486Z,22.10
2018-11-06T10:08:56.529Z,20.67
2018-11-06T10:10:59.604Z,20.97
2018-11-06T10:13:03.914Z,20.07
2018-11-06T10:15:09.904Z,22.00
2018-11-06T10:17:13.033Z,20.37
2018-11-06T10:19:16.133Z,20.40
2018-11-06T10:21:19.259Z,21.27
2018-11-06T10:23:22.294Z,19.33
2018-11-06T10:25:25.422Z,19.13
2018-11-06T10:27:28.428Z,22.33
2018-11-06T10:29:31.453Z,20.90
2018-11-06T10:31:35.237Z,18.33
2018-11-06T10:33:38.268Z,19.50
2018-11-06T10:35:41.379Z,20.67
2018-11-06T10:37:44.524Z,19.47
2018-11-06T10:39:47.565Z,18.93
2018-11-06T10:41:50.927Z,19.40
2018-11-06T10:43:53.988Z,18.77
2018-11-06T10:45:57.065Z,19.43
2018-11-06T10:48:00.174Z,18.20
2018-11-06T10:50:05.088Z,19.70
2018-11-06T10:52:08.137Z,20.20
2018-11-06T10:54:11.211Z,20.90
2018-11-06T10:56:14.281Z,20.63
2018-11-06T10:58:17.427Z,19.07
2018-11-06T11:00:26.616Z,20.90
2018-11-06T11:02:35.333Z,20.73
2018-11-06T11:04:38.412Z,16.83
2018-11-06T11:06:41.738Z,16.53
2018-11-06T11:08:44.869Z,19.77
2018-11-06T11:10:48.392Z,17.77
2018-11-06T11:12:51.479Z,20.23
2018-11-06T11:14:54.544Z,18.20
2018-11-06T11:16:58.123Z,20.03
2018-11-06T11:19:01.368Z,18.70
2018-11-06T11:21:06.657Z,20.33
2018-11-06T11:23:09.751Z,19.80
2018-11-06T11:25:14.040Z,17.53
2018-11-06T11:27:17.838Z,18.83
2018-11-06T11:29:20.926Z,17.77
2018-11-06T11:31:23.953Z,20.00
2018-11-06T11:33:27.014Z,18.70
2018-11-06T11:35:30.096Z,19.00
2018-11-06T11:37:35.536Z,17.23
2018-11-06T11:39:38.573Z,19.77
2018-11-06T11:41:41.620Z,17.20
2018-11-06T11:43:44.697Z,18.50
2018-11-06T11:45:47.796Z,17.53
2018-11-06T11:47:50.790Z,16.70
2018-11-06T11:49:53.833Z,18.60
2018-11-06T11:51:56.916Z,16.63
2018-11-06T11:54:00.323Z,18.30
2018-11-06T11:56:05.076Z,16.37
2018-11-06T11:58:08.167Z,18.83
2018-11-06T12:00:14.048Z,18.40
2018-11-06T12:02:17.170Z,16.10
2018-11-06T12:04:20.129Z,19.20
2018-11-06T12:06:23.239Z,17.23
2018-11-06T12:08:26.405Z,17.87
2018-11-06T12:10:29.637Z,19.07
2018-11-06T12:12:34.324Z,18.53
2018-11-06T12:14:37.803Z,17.77
2018-11-06T12:16:40.868Z,16.17
2018-11-06T12:18:43.917Z,16.00
2018-11-06T12:20:47.093Z,16.67
2018-11-06T12:22:50.173Z,17.20
2018-11-06T12:24:53.345Z,15.60
2018-11-06T12:26:56.320Z,16.80
2018-11-06T12:28:59.329Z,15.90
2018-11-06T12:31:04.127Z,16.20
2018-11-06T12:33:07.214Z,15.40
2018-11-06T12:35:11.437Z,16.20
2018-11-06T12:37:14.530Z,16.50
2018-11-06T12:39:17.613Z,16.03
2018-11-06T12:41:20.691Z,15.30
2018-11-06T12:43:23.786Z,16.40
2018-11-06T12:45:26.904Z,16.23
2018-11-06T12:47:29.956Z,16.07
2018-11-06T12:49:34.215Z,16.83
2018-11-06T12:51:37.271Z,16.07
2018-11-06T12:53:40.414Z,15.53
2018-11-06T12:55:43.458Z,16.40
2018-11-06T12:57:46.879Z,16.33
2018-11-06T12:59:49.939Z,15.53
2018-11-06T13:01:52.995Z,16.40
2018-11-06T13:03:56.063Z,15.40
2018-11-06T13:05:59.179Z,16.80
2018-11-06T13:08:03.589Z,16.47
2018-11-06T13:10:07.084Z,16.57
2018-11-06T13:12:10.149Z,17.50
2018-11-06T13:14:13.198Z,16.90
2018-11-06T13:16:16.309Z,16.43
2018-11-06T13:18:19.725Z,16.50
2018-11-06T13:20:22.804Z,16.83
2018-11-06T13:22:25.928Z,16.47
2018-11-06T13:24:29.015Z,16.10
2018-11-06T13:26:33.673Z,17.40
2018-11-06T13:28:36.635Z,16.57
2018-11-06T13:30:39.730Z,18.80
2018-11-06T13:32:43.728Z,18.87
2018-11-06T13:34:46.777Z,17.43
2018-11-06T13:36:50.875Z,17.57
2018-11-06T13:38:54.009Z,16.87
2018-11-06T13:40:57.037Z,16.50
2018-11-06T13:43:00.215Z,16.23
2018-11-06T13:45:06.110Z,17.43
2018-11-06T13:47:09.019Z,18.47
2018-11-06T13:49:12.144Z,20.83
2018-11-06T13:51:15.341Z,22.00
2018-11-06T13:53:18.342Z,21.07
2018-11-06T13:55:21.459Z,21.93
2018-11-06T13:57:24.513Z,22.90
2018-11-06T13:59:27.617Z,25.43
2018-11-06T14:01:30.671Z,26.47
2018-11-06T14:03:35.225Z,23.43
2018-11-06T14:05:38.316Z,22.47
2018-11-06T14:07:41.405Z,21.40
2018-11-06T14:09:44.695Z,25.17
2018-11-06T14:11:47.790Z,26.07
2018-11-06T14:13:51.337Z,26.63
2018-11-06T14:15:54.406Z,25.50
2018-11-06T14:17:57.445Z,25.03
2018-11-06T14:20:00.603Z,23.40
2018-11-06T14:22:04.386Z,21.73
2018-11-06T14:24:07.525Z,20.87
2018-11-06T14:26:10.724Z,20.33
2018-11-06T14:28:13.897Z,20.10
2018-11-06T14:30:18.345Z,19.37
2018-11-06T14:32:21.456Z,19.40
2018-11-06T14:34:24.657Z,19.40
2018-11-06T14:36:27.711Z,19.70
2018-11-06T14:38:30.765Z,19.43
2018-11-06T14:40:35.391Z,19.27
2018-11-06T14:42:39.123Z,19.13
2018-11-06T14:44:42.453Z,19.40
2018-11-06T14:46:45.484Z,19.40
2018-11-06T14:48:48.688Z,19.23
2018-11-06T14:50:51.937Z,19.37
2018-11-06T14:52:54.970Z,19.83
2018-11-06T14:54:58.469Z,19.40
2018-11-06T14:57:01.556Z,19.13
2018-11-06T14:59:06.114Z,20.40
2018-11-06T15:01:09.203Z,19.10
2018-11-06T15:03:12.332Z,19.87
2018-11-06T15:05:16.124Z,20.03
2018-11-06T15:07:19.118Z,20.30
2018-11-06T15:09:23.642Z,20.30
2018-11-06T15:11:26.815Z,21.03
2018-11-06T15:13:29.940Z,20.80
2018-11-06T15:15:34.751Z,20.17
2018-11-06T15:17:38.021Z,20.13
2018-11-06T15:19:41.099Z,21.93
2018-11-06T15:21:44.248Z,20.27
2018-11-06T15:23:47.328Z,20.87
2018-11-06T15:25:50.386Z,20.43
2018-11-06T15:27:53.476Z,19.97
2018-11-06T15:29:57.964Z,21.50
2018-11-06T15:32:01.066Z,20.50
2018-11-06T15:34:05.352Z,21.53
2018-11-06T15:36:08.443Z,19.83
2018-11-06T15:38:12.005Z,21.83
2018-11-06T15:40:16.494Z,21.37
2018-11-06T15:42:19.776Z,20.80
2018-11-06T15:44:22.899Z,22.43
2018-11-06T15:46:26.011Z,21.40
2018-11-06T15:48:29.084Z,21.30
2018-11-06T15:50:34.041Z,21.43
2018-11-06T15:52:37.284Z,21.60
2018-11-06T15:54:41.288Z,20.30
2018-11-06T15:56:44.219Z,21.33
2018-11-06T15:58:47.698Z,21.97
2018-11-06T16:00:50.847Z,20.70
2018-11-06T16:02:53.853Z,21.53
2018-11-06T16:04:56.916Z,21.37
2018-11-06T16:07:00.264Z,20.90
2018-11-06T16:09:06.001Z,22.70
2018-11-06T16:11:09.109Z,22.37
2018-11-06T16:13:12.232Z,23.83
2018-11-06T16:15:15.413Z,23.00
2018-11-06T16:17:18.515Z,26.60
2018-11-06T16:19:21.587Z,23.57
2018-11-06T16:21:24.713Z,23.77
2018-11-06T16:23:27.823Z,23.80
2018-11-06T16:25:30.965Z,24.63
2018-11-06T16:27:35.695Z,22.03
2018-11-06T16:29:38.767Z,24.47
2018-11-06T16:31:41.805Z,24.13
2018-11-06T16:33:45.210Z,24.33
2018-11-06T16:35:48.396Z,23.60
2018-11-06T16:37:51.734Z,22.87
2018-11-06T16:39:54.867Z,22.37
2018-11-06T16:41:57.956Z,23.77
2018-11-06T16:44:00.982Z,23.43
2018-11-06T16:46:05.821Z,22.00
2018-11-06T16:48:08.947Z,23.00
2018-11-06T16:50:13.718Z,22.87
2018-11-06T16:52:16.956Z,22.70
2018-11-06T16:54:20.016Z,21.87
2018-11-06T16:56:23.102Z,22.63
2018-11-06T16:58:26.215Z,22.40
2018-11-06T17:00:29.358Z,22.17
2018-11-06T17:02:33.633Z,21.80
2018-11-06T17:04:36.685Z,22.80
2018-11-06T17:06:47.293Z,21.23
2018-11-06T17:08:50.658Z,22.37
2018-11-06T17:10:53.698Z,23.00
2018-11-06T17:12:56.849Z,22.60
2018-11-06T17:15:00.249Z,22.63
2018-11-06T17:17:05.292Z,23.97
2018-11-06T17:19:08.325Z,24.53
2018-11-06T17:21:11.913Z,25.23
2018-11-06T17:23:15.078Z,25.33
2018-11-06T17:25:19.464Z,24.80
2018-11-06T17:27:22.642Z,26.20
2018-11-06T17:29:25.700Z,23.97
2018-11-06T17:31:28.829Z,25.87
2018-11-06T17:33:33.689Z,24.80
2018-11-06T17:35:37.184Z,27.17
2018-11-06T17:37:40.656Z,25.20
2018-11-06T17:39:43.764Z,27.13
2018-11-06T17:41:46.881Z,27.70
2018-11-06T17:43:49.987Z,30.10
2018-11-06T17:45:53.044Z,28.30
2018-11-06T17:47:56.108Z,26.20
2018-11-06T17:49:59.226Z,28.80
2018-11-06T17:52:03.979Z,27.50
2018-11-06T17:54:07.011Z,27.87
2018-11-06T17:56:10.424Z,28.20
2018-11-06T17:58:13.496Z,27.53
2018-11-06T18:00:18.941Z,26.33
2018-11-06T18:02:23.244Z,27.70
2018-11-06T18:04:26.428Z,27.07
2018-11-06T18:06:29.419Z,27.03
2018-11-06T18:08:34.435Z,27.37
2018-11-06T18:10:37.975Z,27.03
2018-11-06T18:12:41.144Z,26.27
2018-11-06T18:14:44.254Z,26.33
2018-11-06T18:16:47.784Z,26.60
2018-11-06T18:18:51.183Z,27.00
2018-11-06T18:20:54.257Z,27.30
2018-11-06T18:22:57.380Z,28.03
2018-11-06T18:25:00.668Z,29.27
2018-11-06T18:27:05.865Z,29.47
2018-11-06T18:29:08.976Z,27.47
2018-11-06T18:31:12.048Z,28.53
2018-11-06T18:33:15.371Z,28.23
2018-11-06T18:35:18.822Z,29.10
2018-11-06T18:37:22.626Z,27.90
2018-11-06T18:39:26.131Z,27.00
2018-11-06T18:41:29.224Z,29.10
2018-11-06T18:43:34.130Z,27.73
2018-11-06T18:45:37.214Z,28.30
2018-11-06T18:47:40.977Z,28.53
2018-11-06T18:49:44.630Z,27.20
2018-11-06T18:51:48.389Z,26.80
2018-11-06T18:53:51.565Z,29.27
2018-11-06T18:55:54.750Z,27.30
2018-11-06T18:57:58.748Z,25.93
2018-11-06T19:00:03.504Z,27.20
2018-11-06T19:02:07.701Z,26.97
2018-11-06T19:04:10.919Z,27.73
2018-11-06T19:06:15.520Z,30.80
2018-11-06T19:08:18.669Z,31.70
2018-11-06T19:10:22.127Z,30.15
2018-11-06T19:12:25.356Z,33.20
2018-11-06T19:14:28.492Z,29.20
2018-11-06T19:16:33.917Z,31.80
2018-11-06T19:18:38.425Z,30.20
2018-11-06T19:20:42.081Z,28.73
2018-11-06T19:22:45.387Z,29.23
2018-11-06T19:24:48.459Z,26.13
2018-11-06T19:26:51.619Z,29.07
2018-11-06T19:28:56.183Z,27.43
2018-11-06T19:30:59.413Z,26.43
2018-11-06T19:33:04.393Z,29.13
2018-11-06T19:35:07.546Z,27.37
2018-11-06T19:37:10.657Z,29.10
2018-11-06T19:39:13.661Z,26.43
2018-11-06T19:41:16.736Z,27.23
2018-11-06T19:43:19.825Z,28.40
2018-11-06T19:45:24.695Z,28.33
2018-11-06T19:47:28.027Z,27.10
2018-11-06T19:49:31.068Z,29.30
2018-11-06T19:51:35.769Z,30.37
2018-11-06T19:53:38.870Z,27.80
2018-11-06T19:55:41.998Z,27.97
2018-11-06T19:57:45.137Z,31.37
2018-11-06T19:59:50.403Z,30.20
2018-11-06T20:01:54.305Z,28.80
2018-11-06T20:03:57.386Z,30.73
2018-11-06T20:06:01.745Z,30.00
2018-11-06T20:08:05.477Z,29.17
2018-11-06T20:10:12.380Z,29.93
2018-11-06T20:12:15.647Z,29.83
2018-11-06T20:14:19.346Z,30.33
2018-11-06T20:16:22.469Z,30.73
2018-11-06T20:18:25.542Z,30.10
2018-11-06T20:20:29.510Z,29.70
2018-11-06T20:22:35.203Z,29.67
2018-11-06T20:24:38.356Z,33.40
2018-11-06T20:26:41.574Z,30.90
2018-11-06T20:28:45.044Z,33.70
2018-11-06T20:30:48.511Z,33.13
2018-11-06T20:32:51.629Z,33.43
2018-11-06T20:34:55.068Z,36.00
2018-11-06T20:36:58.244Z,35.77
2018-11-06T20:39:04.319Z,32.73
2018-11-06T20:41:07.458Z,30.80
2018-11-06T20:43:10.644Z,32.77
2018-11-06T20:45:17.036Z,28.93
2018-11-06T20:47:20.613Z,29.03
2018-11-06T20:49:23.672Z,29.60
2018-11-06T20:51:26.816Z,31.57
2018-11-06T20:53:29.884Z,31.20
2018-11-06T20:55:35.271Z,28.97
2018-11-06T20:57:38.490Z,28.50
2018-11-06T20:59:41.621Z,30.00
2018-11-06T21:01:44.665Z,28.40
2018-11-06T21:03:47.787Z,29.97
2018-11-06T21:05:50.906Z,33.13
2018-11-06T21:07:53.972Z,32.60
2018-11-06T21:09:57.026Z,30.17
2018-11-06T21:12:00.152Z,33.97
2018-11-06T21:14:04.749Z,33.00
2018-11-06T21:16:08.192Z,35.67
2018-11-06T21:18:11.671Z,37.43
2018-11-06T21:20:15.539Z,35.40
2018-11-06T21:22:18.523Z,34.33
2018-11-06T21:24:21.616Z,33.53
2018-11-06T21:26:24.802Z,33.20
2018-11-06T21:28:28.353Z,34.63
2018-11-06T21:30:31.545Z,33.57
2018-11-06T21:32:34.751Z,35.50
2018-11-06T21:34:37.857Z,38.77
2018-11-06T21:36:41.241Z,36.47
2018-11-06T21:38:44.386Z,38.33
2018-11-06T21:40:47.467Z,38.23
2018-11-06T21:42:51.070Z,41.70
2018-11-06T21:44:54.151Z,40.83
2018-11-06T21:46:57.190Z,41.20
2018-11-06T21:49:00.671Z,42.60
2018-11-06T21:51:05.646Z,42.80
2018-11-06T21:53:08.688Z,45.60
2018-11-06T21:55:13.853Z,40.97
2018-11-06T21:57:17.590Z,42.77
2018-11-06T21:59:20.710Z,44.10
2018-11-06T22:01:23.789Z,43.23
2018-11-06T22:03:26.871Z,41.17
2018-11-06T22:05:29.934Z,42.40
2018-11-06T22:07:34.426Z,41.47
2018-11-06T22:09:37.539Z,42.70
2018-11-06T22:11:40.677Z,44.90
2018-11-06T22:13:44.643Z,44.37
2018-11-06T22:15:47.783Z,44.33
2018-11-06T22:17:50.847Z,45.20
2018-11-06T22:19:53.969Z,44.40
2018-11-06T22:21:57.112Z,44.37
2018-11-06T22:24:00.187Z,46.90
2018-11-06T22:26:04.979Z,47.67
2018-11-06T22:28:08.142Z,44.27
2018-11-06T22:30:12.602Z,44.50
2018-11-06T22:32:15.724Z,45.10
2018-11-06T22:34:18.805Z,42.47
2018-11-06T22:36:22.120Z,46.90
2018-11-06T22:38:25.323Z,44.33
2018-11-06T22:40:28.506Z,45.03
2018-11-06T22:42:32.126Z,46.03
2018-11-06T22:44:35.230Z,46.57
2018-11-06T22:46:38.323Z,48.33
2018-11-06T22:48:41.433Z,45.97
2018-11-06T22:50:44.483Z,48.67
2018-11-06T22:52:48.631Z,46.83
2018-11-06T22:54:51.809Z,48.97
2018-11-06T22:56:54.877Z,47.23
2018-11-06T22:58:58.223Z,47.37
2018-11-06T23:01:06.887Z,42.80
2018-11-06T23:03:11.492Z,45.23
2018-11-06T23:05:14.848Z,43.03
2018-11-06T23:07:23.756Z,43.97
2018-11-06T23:09:26.973Z,43.00
2018-11-06T23:11:30.030Z,44.07
2018-11-06T23:13:33.965Z,44.70
2018-11-06T23:15:37.478Z,44.70
2018-11-06T23:17:40.521Z,43.43
2018-11-06T23:19:43.606Z,44.40
2018-11-06T23:21:46.671Z,44.20
2018-11-06T23:23:49.765Z,45.40
2018-11-06T23:25:52.817Z,44.80
2018-11-06T23:27:56.157Z,42.07
2018-11-06T23:29:59.242Z,43.70
2018-11-06T23:32:02.980Z,45.57
2018-11-06T23:34:06.388Z,43.93
2018-11-06T23:36:09.481Z,43.80
2018-11-06T23:38:12.553Z,44.10
2018-11-06T23:40:15.872Z,43.90
2018-11-06T23:42:18.963Z,44.30
2018-11-06T23:44:22.025Z,41.20
2018-11-06T23:46:25.141Z,42.87
2018-11-06T23:48:28.243Z,40.40
2018-11-06T23:50:31.319Z,43.97
2018-11-06T23:52:36.003Z,40.07
2018-11-06T23:54:39.073Z,42.03
2018-11-06T23:56:42.146Z,42.60
2018-11-06T23:58:45.249Z,40.93
